createdAt,value
2018-08-03T00:01:01.835Z,12.60
2018-08-03T00:03:29.763Z,13.03
2018-08-03T00:05:57.749Z,14.87
2018-08-03T00:08:25.708Z,14.03
2018-08-03T00:10:53.668Z,14.93
2018-08-03T00:13:21.824Z,14.47
2018-08-03T00:15:49.832Z,14.87
2018-08-03T00:18:18.006Z,14.10
2018-08-03T00:20:46.056Z,14.47
2018-08-03T00:23:14.171Z,12.80
2018-08-03T00:25:42.395Z,12.83
2018-08-03T00:28:10.580Z,14.20
2018-08-03T00:30:38.993Z,14.37
2018-08-03T00:33:06.987Z,13.20
2018-08-03T00:35:35.171Z,14.37
2018-08-03T00:38:03.233Z,12.90
2018-08-03T00:40:31.220Z,12.70
2018-08-03T00:42:59.171Z,14.70
2018-08-03T00:45:27.146Z,13.90
2018-08-03T00:47:55.117Z,16.20
2018-08-03T00:50:23.309Z,14.17
2018-08-03T00:52:51.335Z,17.43
2018-08-03T00:55:19.402Z,14.27
2018-08-03T00:57:47.506Z,14.13
2018-08-03T01:00:15.646Z,15.33
2018-08-03T01:02:43.712Z,13.87
2018-08-03T01:05:11.885Z,14.80
2018-08-03T01:07:40.120Z,15.30
2018-08-03T01:10:08.061Z,15.20
2018-08-03T01:12:36.021Z,14.73
2018-08-03T01:15:04.789Z,15.17
2018-08-03T01:17:32.791Z,15.43
2018-08-03T01:20:00.748Z,14.83
2018-08-03T01:22:28.733Z,14.73
2018-08-03T01:24:56.709Z,15.30
2018-08-03T01:27:24.640Z,17.47
2018-08-03T01:29:52.609Z,15.73
2018-08-03T01:32:20.694Z,15.47
2018-08-03T01:34:48.825Z,15.47
2018-08-03T01:37:16.934Z,15.03
2018-08-03T01:39:45.036Z,14.90
2018-08-03T01:42:13.095Z,15.23
2018-08-03T01:44:41.236Z,13.80
2018-08-03T01:47:09.536Z,14.90
2018-08-03T01:49:37.603Z,14.97
2018-08-03T01:52:05.629Z,15.10
2018-08-03T01:54:33.819Z,16.07
2018-08-03T01:57:01.754Z,15.60
2018-08-03T01:59:29.756Z,15.00
2018-08-03T02:01:57.726Z,14.50
2018-08-03T02:04:25.661Z,16.03
2018-08-03T02:06:53.616Z,15.27
2018-08-03T02:09:21.582Z,15.67
2018-08-03T02:11:49.670Z,14.77
2018-08-03T02:14:17.744Z,15.67
2018-08-03T02:16:45.792Z,13.70
2018-08-03T02:19:13.888Z,15.57
2018-08-03T02:21:42.190Z,16.33
2018-08-03T02:24:10.352Z,16.77
2018-08-03T02:26:38.448Z,16.77
2018-08-03T02:29:06.688Z,16.73
2018-08-03T02:31:34.768Z,17.80
2018-08-03T02:34:02.862Z,17.00
2018-08-03T02:36:30.871Z,16.23
2018-08-03T02:38:58.826Z,17.37
2018-08-03T02:41:26.782Z,17.60
2018-08-03T02:43:54.835Z,16.63
2018-08-03T02:46:22.796Z,17.43
2018-08-03T02:48:50.836Z,17.57
2018-08-03T02:51:18.955Z,18.43
2018-08-03T02:53:47.057Z,16.83
2018-08-03T02:56:15.246Z,18.40
2018-08-03T02:58:43.360Z,17.77
2018-08-03T03:01:11.504Z,19.03
2018-08-03T03:03:39.645Z,18.60
2018-08-03T03:06:07.677Z,19.40
2018-08-03T03:08:35.786Z,17.47
2018-08-03T03:11:03.843Z,18.03
2018-08-03T03:13:31.851Z,18.73
2018-08-03T03:15:59.720Z,19.70
2018-08-03T03:18:27.715Z,18.73
2018-08-03T03:20:55.660Z,17.57
2018-08-03T03:23:23.723Z,17.30
2018-08-03T03:25:51.768Z,15.83
2018-08-03T03:28:19.892Z,18.53
2018-08-03T03:30:48.049Z,20.10
2018-08-03T03:33:16.117Z,20.03
2018-08-03T03:35:44.155Z,16.93
2018-08-03T03:38:12.367Z,20.67
2018-08-03T03:40:40.565Z,18.83
2018-08-03T03:43:08.796Z,16.70
2018-08-03T03:45:36.767Z,18.70
2018-08-03T03:48:04.751Z,17.50
2018-08-03T03:50:32.757Z,15.87
2018-08-03T03:53:01.060Z,17.47
2018-08-03T03:55:29.996Z,17.17
2018-08-03T03:57:58.676Z,17.97
2018-08-03T04:00:26.636Z,17.97
2018-08-03T04:02:54.612Z,16.20
2018-08-03T04:05:22.582Z,16.10
2018-08-03T04:07:50.629Z,15.20
2018-08-03T04:10:18.766Z,16.90
2018-08-03T04:12:46.854Z,16.73
2018-08-03T04:15:14.976Z,14.40
2018-08-03T04:17:43.121Z,15.53
2018-08-03T04:20:11.461Z,14.60
2018-08-03T04:22:39.657Z,17.17
2018-08-03T04:25:07.650Z,17.17
2018-08-03T04:27:35.819Z,16.63
2018-08-03T04:30:04.588Z,16.87
2018-08-03T04:32:32.687Z,14.10
2018-08-03T04:35:00.678Z,14.90
2018-08-03T04:37:28.679Z,13.53
2018-08-03T04:39:56.616Z,13.23
2018-08-03T04:42:24.895Z,14.17
2018-08-03T04:44:52.864Z,15.30
2018-08-03T04:47:21.052Z,16.57
2018-08-03T04:49:49.301Z,15.20
2018-08-03T04:52:17.365Z,14.80
2018-08-03T04:54:45.601Z,16.80
2018-08-03T04:57:14.266Z,15.60
2018-08-03T04:59:42.698Z,15.27
2018-08-03T05:02:11.320Z,15.33
2018-08-03T05:04:39.581Z,17.23
2018-08-03T05:07:07.714Z,16.87
2018-08-03T05:09:35.864Z,18.43
2018-08-03T05:12:04.139Z,16.47
2018-08-03T05:14:32.073Z,15.20
2018-08-03T05:17:00.030Z,16.33
2018-08-03T05:19:27.957Z,16.97
2018-08-03T05:21:55.938Z,17.33
2018-08-03T05:24:23.928Z,15.73
2018-08-03T05:26:51.893Z,15.83
2018-08-03T05:29:20.008Z,15.60
2018-08-03T05:31:48.269Z,16.60
2018-08-03T05:34:16.622Z,13.93
2018-08-03T05:36:44.998Z,23.23
2018-08-03T05:39:13.502Z,17.67
2018-08-03T05:41:41.756Z,15.00
2018-08-03T05:44:11.121Z,14.07
2018-08-03T05:46:39.445Z,14.63
2018-08-03T05:49:07.438Z,14.67
2018-08-03T05:51:35.865Z,15.50
2018-08-03T05:54:03.956Z,15.60
2018-08-03T05:56:32.207Z,15.30
2018-08-03T05:59:00.501Z,15.47
2018-08-03T06:01:28.447Z,15.83
2018-08-03T06:03:56.526Z,18.27
2018-08-03T06:06:24.533Z,17.00
2018-08-03T06:08:52.617Z,17.03
2018-08-03T06:11:20.861Z,17.50
2018-08-03T06:13:49.063Z,18.07
2018-08-03T06:16:17.344Z,18.20
2018-08-03T06:18:45.788Z,16.73
2018-08-03T06:21:14.214Z,18.77
2018-08-03T06:23:43.030Z,17.47
2018-08-03T06:26:11.733Z,18.20
2018-08-03T06:28:41.085Z,17.83
2018-08-03T06:31:09.646Z,16.40
2018-08-03T06:33:37.906Z,15.27
2018-08-03T06:36:06.040Z,16.93
2018-08-03T06:38:34.092Z,18.13
2018-08-03T06:41:02.165Z,16.90
2018-08-03T06:43:30.566Z,16.90
2018-08-03T06:45:58.512Z,18.23
2018-08-03T06:48:26.558Z,16.30
2018-08-03T06:50:54.574Z,16.70
2018-08-03T06:53:22.612Z,18.10
2018-08-03T06:55:50.584Z,17.47
2018-08-03T06:58:18.878Z,18.00
2018-08-03T07:00:47.297Z,16.77
2018-08-03T07:03:15.761Z,16.57
2018-08-03T07:05:44.796Z,17.33
2018-08-03T07:08:13.640Z,16.53
2018-08-03T07:10:42.766Z,18.10
2018-08-03T07:13:11.251Z,18.10
2018-08-03T07:15:39.760Z,16.00
2018-08-03T07:18:08.845Z,17.90
2018-08-03T07:20:37.365Z,18.00
2018-08-03T07:23:05.329Z,16.80
2018-08-03T07:25:33.581Z,17.20
2018-08-03T07:28:01.648Z,17.30
2018-08-03T07:30:29.923Z,20.30
2018-08-03T07:32:58.230Z,20.33
2018-08-03T07:35:26.408Z,19.63
2018-08-03T07:37:54.433Z,17.90
2018-08-03T07:40:22.438Z,20.87
2018-08-03T07:42:50.603Z,18.40
2018-08-03T07:45:18.878Z,18.90
2018-08-03T07:47:47.128Z,18.93
2018-08-03T07:50:15.321Z,19.07
2018-08-03T07:52:43.837Z,18.47
2018-08-03T07:55:12.784Z,17.90
2018-08-03T07:57:41.537Z,18.50
2018-08-03T08:00:10.655Z,16.33
2018-08-03T08:02:39.006Z,17.50
2018-08-03T08:05:07.325Z,18.57
2018-08-03T08:07:35.536Z,17.77
2018-08-03T08:10:03.877Z,16.30
2018-08-03T08:12:31.831Z,16.10
2018-08-03T08:15:00.177Z,17.40
2018-08-03T08:17:28.249Z,18.43
2018-08-03T08:19:56.289Z,16.53
2018-08-03T08:22:24.309Z,19.10
2018-08-03T08:24:52.490Z,17.40
2018-08-03T08:27:20.812Z,18.53
2018-08-03T08:29:49.201Z,17.23
2018-08-03T08:32:18.113Z,18.00
2018-08-03T08:34:46.711Z,19.03
2018-08-03T08:37:15.165Z,18.13
2018-08-03T08:39:43.784Z,18.63
2018-08-03T08:42:12.586Z,19.67
2018-08-03T08:44:41.162Z,18.77
2018-08-03T08:47:10.010Z,17.30
2018-08-03T08:49:38.165Z,16.63
2018-08-03T08:52:06.655Z,18.60
2018-08-03T08:54:34.639Z,18.07
2018-08-03T08:57:02.718Z,17.87
2018-08-03T08:59:30.765Z,17.83
2018-08-03T09:01:58.789Z,18.23
2018-08-03T09:04:26.752Z,17.20
2018-08-03T09:06:54.739Z,17.40
2018-08-03T09:09:22.789Z,19.13
2018-08-03T09:11:50.904Z,17.33
2018-08-03T09:14:19.298Z,16.70
2018-08-03T09:16:47.904Z,17.67
2018-08-03T09:19:16.220Z,16.87
2018-08-03T09:21:44.869Z,16.60
2018-08-03T09:24:13.456Z,18.03
2018-08-03T09:26:42.644Z,17.33
2018-08-03T09:29:11.376Z,19.73
2018-08-03T09:31:39.966Z,17.67
2018-08-03T09:34:08.232Z,20.03
2018-08-03T09:36:36.343Z,18.23
2018-08-03T09:39:06.616Z,19.70
2018-08-03T09:41:34.688Z,19.07
2018-08-03T09:44:02.671Z,17.47
2018-08-03T09:46:30.781Z,18.33
2018-08-03T09:48:58.827Z,19.20
2018-08-03T09:51:26.908Z,17.13
2018-08-03T09:53:55.034Z,19.40
2018-08-03T09:56:23.148Z,19.37
2018-08-03T09:58:51.277Z,19.40
2018-08-03T10:01:19.568Z,18.40
2018-08-03T10:03:47.921Z,19.43
2018-08-03T10:06:16.589Z,18.63
2018-08-03T10:08:45.254Z,20.47
2018-08-03T10:11:14.096Z,17.90
2018-08-03T10:13:43.208Z,17.90
2018-08-03T10:16:12.334Z,19.83
2018-08-03T10:18:41.216Z,19.53
2018-08-03T10:21:09.743Z,18.63
2018-08-03T10:23:37.848Z,18.10
2018-08-03T10:26:06.005Z,17.13
2018-08-03T10:28:34.189Z,16.67
2018-08-03T10:31:02.160Z,17.83
2018-08-03T10:33:30.519Z,18.23
2018-08-03T10:35:58.527Z,16.00
2018-08-03T10:38:26.807Z,16.77
2018-08-03T10:40:54.828Z,16.00
2018-08-03T10:43:23.012Z,16.00
2018-08-03T10:45:51.156Z,21.83
2018-08-03T10:48:19.459Z,22.60
2018-08-03T10:50:48.128Z,19.83
2018-08-03T10:53:16.849Z,18.37
2018-08-03T10:55:45.117Z,17.50
2018-08-03T10:58:14.409Z,15.57
2018-08-03T11:00:43.052Z,16.07
2018-08-03T11:03:11.624Z,15.83
2018-08-03T11:05:40.359Z,14.23
2018-08-03T11:08:08.908Z,15.57
2018-08-03T11:10:36.936Z,16.80
2018-08-03T11:13:04.905Z,14.63
2018-08-03T11:15:32.934Z,17.37
2018-08-03T11:18:00.925Z,16.87
2018-08-03T11:20:28.952Z,16.30
2018-08-03T11:22:56.981Z,15.20
2018-08-03T11:25:24.978Z,16.33
2018-08-03T11:27:52.971Z,15.27
2018-08-03T11:30:20.961Z,15.13
2018-08-03T11:32:48.980Z,16.50
2018-08-03T11:35:17.022Z,15.50
2018-08-03T11:37:45.199Z,15.23
2018-08-03T11:40:13.844Z,15.93
2018-08-03T11:42:42.351Z,16.00
2018-08-03T11:45:11.391Z,14.40
2018-08-03T11:47:39.739Z,14.40
2018-08-03T11:50:09.290Z,14.77
2018-08-03T11:52:37.356Z,12.67
2018-08-03T11:55:05.549Z,14.90
2018-08-03T11:57:33.755Z,13.50
2018-08-03T12:00:02.001Z,12.00
2018-08-03T12:02:30.288Z,13.03
2018-08-03T12:04:58.264Z,14.07
2018-08-03T12:07:26.200Z,12.80
2018-08-03T12:09:54.196Z,13.77
2018-08-03T12:12:22.203Z,13.00
2018-08-03T12:14:50.152Z,12.30
2018-08-03T12:17:18.576Z,13.50
2018-08-03T12:19:46.865Z,14.23
2018-08-03T12:22:15.455Z,14.67
2018-08-03T12:24:43.990Z,14.20
2018-08-03T12:27:12.238Z,15.23
2018-08-03T12:29:40.896Z,14.97
2018-08-03T12:32:09.210Z,13.97
2018-08-03T12:34:37.361Z,14.00
2018-08-03T12:37:05.378Z,13.37
2018-08-03T12:39:33.533Z,12.43
2018-08-03T12:42:04.105Z,13.30
2018-08-03T12:44:32.459Z,13.67
2018-08-03T12:47:00.448Z,13.97
2018-08-03T12:49:28.533Z,12.47
2018-08-03T12:51:56.534Z,13.10
2018-08-03T12:54:24.519Z,13.00
2018-08-03T12:56:52.578Z,13.47
2018-08-03T12:59:21.132Z,12.77
2018-08-03T13:01:55.683Z,13.10
2018-08-03T13:04:23.665Z,12.43
2018-08-03T13:06:51.837Z,12.93
2018-08-03T13:09:20.044Z,12.67
2018-08-03T13:11:48.432Z,13.83
2018-08-03T13:14:16.944Z,14.47
2018-08-03T13:16:45.222Z,12.00
2018-08-03T13:19:14.004Z,13.27
2018-08-03T13:21:42.898Z,10.80
2018-08-03T13:24:11.596Z,11.37
2018-08-03T13:26:40.422Z,11.97
2018-08-03T13:29:09.476Z,13.03
2018-08-03T13:31:37.758Z,12.40
2018-08-03T13:34:05.821Z,12.07
2018-08-03T13:36:34.092Z,13.23
2018-08-03T13:39:02.136Z,11.97
2018-08-03T13:41:30.049Z,12.90
2018-08-03T13:43:58.018Z,12.10
2018-08-03T13:46:26.042Z,12.47
2018-08-03T13:48:54.060Z,12.90
2018-08-03T13:51:22.412Z,12.80
2018-08-03T13:53:50.869Z,12.90
2018-08-03T13:56:19.039Z,12.10
2018-08-03T13:58:47.785Z,12.50
2018-08-03T14:01:21.685Z,12.83
2018-08-03T14:03:50.241Z,9.53
2018-08-03T14:06:18.719Z,11.53
2018-08-03T14:08:48.016Z,10.87
2018-08-03T14:11:17.047Z,11.37
2018-08-03T14:13:46.195Z,11.00
2018-08-03T14:16:14.996Z,10.90
2018-08-03T14:18:44.937Z,11.37
2018-08-03T14:21:13.520Z,11.23
2018-08-03T14:23:42.182Z,13.00
2018-08-03T14:26:25.297Z,10.90
2018-08-03T14:28:53.311Z,10.80
2018-08-03T14:31:21.307Z,10.93
2018-08-03T14:33:49.476Z,9.90
2018-08-03T14:36:17.654Z,9.80
2018-08-03T14:38:45.807Z,12.10
2018-08-03T14:41:14.419Z,11.03
2018-08-03T14:43:43.416Z,11.43
2018-08-03T14:46:12.564Z,12.23
2018-08-03T14:48:42.137Z,12.77
2018-08-03T14:51:10.621Z,11.00
2018-08-03T14:53:38.923Z,11.07
2018-08-03T14:56:07.377Z,11.43
2018-08-03T14:58:35.493Z,12.03
2018-08-03T15:01:03.485Z,12.67
2018-08-03T15:03:32.162Z,10.90
2018-08-03T15:06:00.515Z,12.03
2018-08-03T15:08:34.320Z,12.47
2018-08-03T15:11:02.551Z,11.60
2018-08-03T15:13:30.578Z,10.93
2018-08-03T15:15:58.576Z,11.33
2018-08-03T15:18:26.502Z,10.37
2018-08-03T15:20:54.605Z,10.77
2018-08-03T15:23:22.692Z,11.87
2018-08-03T15:25:50.616Z,11.17
2018-08-03T15:28:18.730Z,10.63
2018-08-03T15:30:47.266Z,11.73
2018-08-03T15:33:15.905Z,12.50
2018-08-03T15:38:28.026Z,11.10
2018-08-03T15:40:56.467Z,10.60
2018-08-03T15:43:24.591Z,10.70
2018-08-03T15:45:52.560Z,11.10
2018-08-03T15:48:21.106Z,11.87
2018-08-03T15:50:49.559Z,10.70
2018-08-03T15:53:17.786Z,10.33
2018-08-03T15:55:46.295Z,10.60
2018-08-03T15:58:15.001Z,11.73
2018-08-03T16:00:43.761Z,10.20
2018-08-03T16:03:12.360Z,11.27
2018-08-03T16:05:41.055Z,10.70
2018-08-03T16:08:09.467Z,10.93
2018-08-03T16:10:37.456Z,10.03
2018-08-03T16:13:05.832Z,10.30
2018-08-03T16:15:33.792Z,10.80
2018-08-03T16:18:02.508Z,10.73
2018-08-03T16:20:30.982Z,10.37
2018-08-03T16:22:59.224Z,10.20
2018-08-03T16:25:27.447Z,9.80
2018-08-03T16:27:55.470Z,10.17
2018-08-03T16:30:23.677Z,9.83
2018-08-03T16:32:52.272Z,10.67
2018-08-03T16:35:20.612Z,9.83
2018-08-03T16:37:48.825Z,9.10
2018-08-03T16:40:17.219Z,8.40
2018-08-03T16:42:45.585Z,9.37
2018-08-03T16:45:14.417Z,9.20
2018-08-03T16:47:42.883Z,9.67
2018-08-03T16:50:12.175Z,9.40
2018-08-03T16:52:41.008Z,10.50
2018-08-03T16:55:10.491Z,10.90
2018-08-03T16:57:39.260Z,10.43
2018-08-03T17:00:07.274Z,10.30
2018-08-03T17:02:35.300Z,11.27
2018-08-03T17:05:03.289Z,9.83
2018-08-03T17:07:31.258Z,10.77
2018-08-03T17:09:59.434Z,11.77
2018-08-03T17:12:27.457Z,10.63
2018-08-03T17:14:55.482Z,10.30
2018-08-03T17:17:23.653Z,11.50
2018-08-03T17:19:51.697Z,12.63
2018-08-03T17:22:20.208Z,12.43
2018-08-03T17:24:49.021Z,10.43
2018-08-03T17:27:17.279Z,11.93
2018-08-03T17:29:46.772Z,11.87
2018-08-03T17:32:15.202Z,11.40
2018-08-03T17:34:43.505Z,12.00
2018-08-03T17:37:12.539Z,10.60
2018-08-03T17:39:41.163Z,11.20
2018-08-03T17:42:09.541Z,12.00
2018-08-03T17:44:37.777Z,12.27
2018-08-03T17:47:05.770Z,11.80
2018-08-03T17:49:33.836Z,11.90
2018-08-03T17:52:01.780Z,11.40
2018-08-03T17:54:29.764Z,13.53
2018-08-03T17:56:58.163Z,12.90
2018-08-03T17:59:26.200Z,12.53
2018-08-03T18:01:54.229Z,12.73
2018-08-03T18:04:22.220Z,12.50
2018-08-03T18:06:50.390Z,12.30
2018-08-03T18:09:18.757Z,12.97
2018-08-03T18:11:46.964Z,13.00
2018-08-03T18:14:15.253Z,11.80
2018-08-03T18:16:43.745Z,13.33
2018-08-03T18:19:11.926Z,13.13
2018-08-03T18:21:40.369Z,12.50
2018-08-03T18:24:08.354Z,13.83
2018-08-03T18:26:36.366Z,12.43
2018-08-03T18:29:04.374Z,13.07
2018-08-03T18:31:32.301Z,12.63
2018-08-03T18:34:00.265Z,13.93
2018-08-03T18:36:28.222Z,13.47
2018-08-03T18:38:56.236Z,14.70
2018-08-03T18:41:24.234Z,14.37
2018-08-03T18:43:52.180Z,13.40
2018-08-03T18:46:20.841Z,12.93
2018-08-03T18:48:48.958Z,14.27
2018-08-03T18:51:17.257Z,13.60
2018-08-03T18:53:45.962Z,12.53
2018-08-03T18:56:14.196Z,13.20
2018-08-03T18:58:42.825Z,14.00
2018-08-03T19:01:11.613Z,12.13
2018-08-03T19:03:40.774Z,13.53
2018-08-03T19:06:08.896Z,15.13
2018-08-03T19:08:36.982Z,14.53
2018-08-03T19:11:04.973Z,14.40
2018-08-03T19:13:33.619Z,13.83
2018-08-03T19:16:01.614Z,12.43
2018-08-03T19:18:29.604Z,12.93
2018-08-03T19:20:58.021Z,13.77
2018-08-03T19:23:25.964Z,13.80
2018-08-03T19:25:53.936Z,15.00
2018-08-03T19:28:22.105Z,14.87
2018-08-03T19:30:50.410Z,14.80
2018-08-03T19:33:18.440Z,13.73
2018-08-03T19:35:46.653Z,14.60
2018-08-03T19:38:14.736Z,15.10
2018-08-03T19:40:43.496Z,15.20
2018-08-03T19:43:11.755Z,14.20
2018-08-03T19:45:40.026Z,14.43
2018-08-03T19:48:08.060Z,14.40
2018-08-03T19:50:36.297Z,13.97
2018-08-03T19:53:04.235Z,12.67
2018-08-03T19:55:32.233Z,14.60
2018-08-03T19:58:00.355Z,13.83
2018-08-03T20:00:28.377Z,14.80
2018-08-03T20:02:56.328Z,12.07
2018-08-03T20:05:24.296Z,12.00
2018-08-03T20:07:52.245Z,12.60
2018-08-03T20:10:20.589Z,13.20
2018-08-03T20:12:48.772Z,13.20
2018-08-03T20:15:17.071Z,12.40
2018-08-03T20:17:45.489Z,13.13
2018-08-03T20:20:14.036Z,13.30
2018-08-03T20:22:42.994Z,13.30
2018-08-03T20:25:11.781Z,12.63
2018-08-03T20:27:40.056Z,14.40
2018-08-03T20:30:08.334Z,12.80
2018-08-03T20:32:37.092Z,15.07
2018-08-03T20:35:05.740Z,12.60
2018-08-03T20:37:33.828Z,14.67
2018-08-03T20:40:02.006Z,15.10
2018-08-03T20:42:29.949Z,14.60
2018-08-03T20:44:57.961Z,13.63
2018-08-03T20:47:25.915Z,14.20
2018-08-03T20:49:53.894Z,12.77
2018-08-03T20:52:22.014Z,15.17
2018-08-03T20:54:50.312Z,15.17
2018-08-03T20:57:18.562Z,14.60
2018-08-03T20:59:46.811Z,14.83
2018-08-03T21:02:15.016Z,14.67
2018-08-03T21:04:43.447Z,13.70
2018-08-03T21:07:12.166Z,13.63
2018-08-03T21:09:41.209Z,13.83
2018-08-03T21:12:09.596Z,14.30
2018-08-03T21:14:37.559Z,13.30
2018-08-03T21:17:06.485Z,12.60
2018-08-03T21:19:34.582Z,13.83
2018-08-03T21:22:02.523Z,13.53
2018-08-03T21:24:30.461Z,14.17
2018-08-03T21:26:58.484Z,14.20
2018-08-03T21:29:26.428Z,13.73
2018-08-03T21:31:54.425Z,13.93
2018-08-03T21:34:22.381Z,13.97
2018-08-03T21:36:50.582Z,13.60
2018-08-03T21:39:18.790Z,13.43
2018-08-03T21:41:47.059Z,14.47
2018-08-03T21:44:15.314Z,12.83
2018-08-03T21:46:43.569Z,13.10
2018-08-03T21:49:11.977Z,13.20
2018-08-03T21:51:40.573Z,15.00
2018-08-03T21:54:08.584Z,13.53
2018-08-03T21:56:36.573Z,13.07
2018-08-03T21:59:04.538Z,13.33
2018-08-03T22:01:32.488Z,14.93
2018-08-03T22:04:00.480Z,14.27
2018-08-03T22:06:28.445Z,13.93
2018-08-03T22:08:56.420Z,13.83
2018-08-03T22:11:24.382Z,13.63
2018-08-03T22:13:52.380Z,13.87
2018-08-03T22:16:20.609Z,13.67
2018-08-03T22:18:49.098Z,13.60
2018-08-03T22:21:17.117Z,13.37
2018-08-03T22:23:45.257Z,13.60
2018-08-03T22:26:13.500Z,14.87
2018-08-03T22:28:41.804Z,15.37
2018-08-03T22:31:10.074Z,15.33
2018-08-03T22:33:38.080Z,13.37
2018-08-03T22:36:06.229Z,13.77
2018-08-03T22:38:34.435Z,14.43
2018-08-03T22:41:02.408Z,14.50
2018-08-03T22:43:30.707Z,14.00
2018-08-03T22:48:44.025Z,15.60
2018-08-03T22:51:12.460Z,16.10
2018-08-03T22:53:40.800Z,14.10
2018-08-03T22:56:08.885Z,13.73
2018-08-03T22:58:37.128Z,15.90
2018-08-03T23:01:05.377Z,13.77
2018-08-03T23:03:33.492Z,14.37
2018-08-03T23:06:01.716Z,14.97
2018-08-03T23:08:29.665Z,16.73
2018-08-03T23:10:57.597Z,15.33
2018-08-03T23:13:25.574Z,15.17
2018-08-03T23:15:53.522Z,14.20
2018-08-03T23:18:21.563Z,15.60
2018-08-03T23:20:49.767Z,14.60
2018-08-03T23:23:17.989Z,13.60
2018-08-03T23:25:47.976Z,14.90
2018-08-03T23:28:16.126Z,15.33
2018-08-03T23:30:44.388Z,15.00
2018-08-03T23:33:12.684Z,14.43
2018-08-03T23:35:40.900Z,14.70
2018-08-03T23:38:08.965Z,16.67
2018-08-03T23:41:33.264Z,16.17
2018-08-03T23:44:10.907Z,15.43
2018-08-03T23:46:39.523Z,15.23
2018-08-03T23:49:07.529Z,16.40
2018-08-03T23:54:20.481Z,16.53
2018-08-03T23:56:48.724Z,17.93
2018-08-03T23:59:16.918Z,15.20
